sensor_id;sensor_type;location;lat;lon;timestamp;pressure;altitude;pressure_sealevel;temperature;humidity
56456;BME280;42354;53.218;6.564;2023-05-19T00:00:59;46962.66;;;-142.92;100.00
56456;BME280;42354;53.218;6.564;2023-05-19T00:03:25;46962.66;;;-142.92;100.00
56456;BME280;42354;53.218;6.564;2023-05-19T00:05:52;46977.03;;;-142.92;100.00
56456;BME280;42354;53.218;6.564;2023-05-19T00:08:19;46966.75;;;-142.92;100.00
56456;BME280;42354;53.218;6.564;2023-05-19T00:10:45;46954.44;;;-142.92;100.00
56456;BME280;42354;53.218;6.564;2023-05-19T00:13:11;46966.75;;;-142.92;100.00
56456;BME280;42354;53.218;6.564;2023-05-19T00:15:36;46958.56;;;-142.92;100.00
56456;BME280;42354;53.218;6.564;2023-05-19T00:18:02;46972.91;;;-142.92;100.00
56456;BME280;42354;53.218;6.564;2023-05-19T00:20:27;46962.66;;;-142.92;100.00
56456;BME280;42354;53.218;6.564;2023-05-19T00:22:53;46956.50;;;-142.92;100.00
56456;BME280;42354;53.218;6.564;2023-05-19T00:25:18;46962.66;;;-142.92;100.00
56456;BME280;42354;53.218;6.564;2023-05-19T00:27:43;46944.19;;;-142.92;100.00
56456;BME280;42354;53.218;6.564;2023-05-19T00:30:09;46962.66;;;-142.92;100.00
56456;BME280;42354;53.218;6.564;2023-05-19T00:32:34;46952.41;;;-142.92;100.00
56456;BME280;42354;53.218;6.564;2023-05-19T00:35:00;46964.72;;;-142.92;100.00
56456;BME280;42354;53.218;6.564;2023-05-19T00:37:25;46964.72;;;-142.92;100.00
56456;BME280;42354;53.218;6.564;2023-05-19T00:39:51;46952.41;;;-142.92;100.00
56456;BME280;42354;53.218;6.564;2023-05-19T00:42:16;46970.88;;;-142.92;100.00
56456;BME280;42354;53.218;6.564;2023-05-19T00:44:42;46960.59;;;-142.92;100.00
56456;BME280;42354;53.218;6.564;2023-05-19T00:47:07;46970.88;;;-142.92;100.00
56456;BME280;42354;53.218;6.564;2023-05-19T00:49:34;46962.66;;;-142.92;100.00
56456;BME280;42354;53.218;6.564;2023-05-19T00:52:00;46962.66;;;-142.92;100.00
56456;BME280;42354;53.218;6.564;2023-05-19T00:54:26;46956.50;;;-142.92;100.00
56456;BME280;42354;53.218;6.564;2023-05-19T00:56:53;46962.66;;;-142.92;100.00
56456;BME280;42354;53.218;6.564;2023-05-19T00:59:19;46958.56;;;-142.92;100.00
56456;BME280;42354;53.218;6.564;2023-05-19T01:01:45;46966.75;;;-142.92;100.00
56456;BME280;42354;53.218;6.564;2023-05-19T01:04:15;46972.91;;;-142.92;100.00
56456;BME280;42354;53.218;6.564;2023-05-19T01:06:41;46977.03;;;-142.92;100.00
56456;BME280;42354;53.218;6.564;2023-05-19T01:09:06;46968.81;;;-142.92;100.00
56456;BME280;42354;53.218;6.564;2023-05-19T01:11:33;46981.13;;;-142.92;100.00
56456;BME280;42354;53.218;6.564;2023-05-19T01:13:58;46952.41;;;-142.92;100.00
56456;BME280;42354;53.218;6.564;2023-05-19T01:16:30;46958.56;;;-142.92;100.00
56456;BME280;42354;53.218;6.564;2023-05-19T01:27:38;46968.81;;;-142.92;100.00
56456;BME280;42354;53.218;6.564;2023-05-19T01:30:23;46977.03;;;-142.92;100.00
56456;BME280;42354;53.218;6.564;2023-05-19T01:32:52;46960.59;;;-142.92;100.00
56456;BME280;42354;53.218;6.564;2023-05-19T01:35:18;46974.97;;;-142.92;100.00
56456;BME280;42354;53.218;6.564;2023-05-19T01:37:45;46983.19;;;-142.92;100.00
56456;BME280;42354;53.218;6.564;2023-05-19T01:40:11;46962.66;;;-142.92;100.00
56456;BME280;42354;53.218;6.564;2023-05-19T01:42:38;46956.50;;;-142.92;100.00
56456;BME280;42354;53.218;6.564;2023-05-19T01:45:06;46964.72;;;-142.92;100.00
56456;BME280;42354;53.218;6.564;2023-05-19T01:47:35;46970.88;;;-142.92;100.00
56456;BME280;42354;53.218;6.564;2023-05-19T01:50:05;46960.59;;;-142.92;100.00
56456;BME280;42354;53.218;6.564;2023-05-19T01:52:31;46950.34;;;-142.92;100.00
56456;BME280;42354;53.218;6.564;2023-05-19T01:54:57;46962.66;;;-142.92;100.00
56456;BME280;42354;53.218;6.564;2023-05-19T01:57:24;46962.66;;;-142.92;100.00
56456;BME280;42354;53.218;6.564;2023-05-19T02:11:25;46958.56;;;-142.92;100.00
56456;BME280;42354;53.218;6.564;2023-05-19T02:13:54;46960.59;;;-142.92;100.00
56456;BME280;42354;53.218;6.564;2023-05-19T02:16:25;46966.75;;;-142.92;100.00
56456;BME280;42354;53.218;6.564;2023-05-19T02:18:52;46977.03;;;-142.92;100.00
56456;BME280;42354;53.218;6.564;2023-05-19T02:21:18;46952.41;;;-142.92;100.00
56456;BME280;42354;53.218;6.564;2023-05-19T02:23:43;46960.59;;;-142.92;100.00
56456;BME280;42354;53.218;6.564;2023-05-19T02:26:08;46966.75;;;-142.92;100.00
56456;BME280;42354;53.218;6.564;2023-05-19T02:28:34;46974.97;;;-142.92;100.00
56456;BME280;42354;53.218;6.564;2023-05-19T02:31:01;46962.66;;;-142.92;100.00
56456;BME280;42354;53.218;6.564;2023-05-19T02:33:26;46952.41;;;-142.92;100.00
56456;BME280;42354;53.218;6.564;2023-05-19T02:35:54;46981.13;;;-142.92;100.00
56456;BME280;42354;53.218;6.564;2023-05-19T02:38:20;46948.28;;;-142.92;100.00
56456;BME280;42354;53.218;6.564;2023-05-19T02:40:45;46942.13;;;-142.92;100.00
56456;BME280;42354;53.218;6.564;2023-05-19T02:43:11;46983.19;;;-142.92;100.00
56456;BME280;42354;53.218;6.564;2023-05-19T02:45:39;46968.81;;;-142.92;100.00
56456;BME280;42354;53.218;6.564;2023-05-19T02:48:04;46970.88;;;-142.92;100.00
56456;BME280;42354;53.218;6.564;2023-05-19T02:50:30;46964.72;;;-142.92;100.00
56456;BME280;42354;53.218;6.564;2023-05-19T02:52:55;46960.59;;;-142.92;100.00
56456;BME280;42354;53.218;6.564;2023-05-19T02:55:20;46958.56;;;-142.92;100.00
56456;BME280;42354;53.218;6.564;2023-05-19T02:57:46;46962.66;;;-142.92;100.00
56456;BME280;42354;53.218;6.564;2023-05-19T03:00:12;46966.75;;;-142.92;100.00
56456;BME280;42354;53.218;6.564;2023-05-19T03:02:37;46966.75;;;-142.92;100.00
56456;BME280;42354;53.218;6.564;2023-05-19T03:05:04;46970.88;;;-142.92;100.00
56456;BME280;42354;53.218;6.564;2023-05-19T03:07:29;46958.56;;;-142.92;100.00
56456;BME280;42354;53.218;6.564;2023-05-19T03:09:55;46974.97;;;-142.92;100.00
56456;BME280;42354;53.218;6.564;2023-05-19T03:12:20;46995.50;;;-142.92;100.00
56456;BME280;42354;53.218;6.564;2023-05-19T03:14:45;46983.19;;;-142.92;100.00
56456;BME280;42354;53.218;6.564;2023-05-19T03:17:11;46962.66;;;-142.92;100.00
56456;BME280;42354;53.218;6.564;2023-05-19T03:19:37;46981.13;;;-142.92;100.00
56456;BME280;42354;53.218;6.564;2023-05-19T03:22:02;46966.75;;;-142.92;100.00
56456;BME280;42354;53.218;6.564;2023-05-19T03:24:28;46954.44;;;-142.92;100.00
56456;BME280;42354;53.218;6.564;2023-05-19T03:26:53;46983.19;;;-142.92;100.00
56456;BME280;42354;53.218;6.564;2023-05-19T03:29:18;46979.06;;;-142.92;100.00
56456;BME280;42354;53.218;6.564;2023-05-19T03:31:44;46974.97;;;-142.92;100.00
56456;BME280;42354;53.218;6.564;2023-05-19T03:34:09;46981.13;;;-142.92;100.00
56456;BME280;42354;53.218;6.564;2023-05-19T03:36:35;46966.75;;;-142.92;100.00
56456;BME280;42354;53.218;6.564;2023-05-19T03:39:06;46946.25;;;-142.92;100.00
56456;BME280;42354;53.218;6.564;2023-05-19T03:41:31;46979.06;;;-142.92;100.00
56456;BME280;42354;53.218;6.564;2023-05-19T03:43:57;46962.66;;;-142.92;100.00
56456;BME280;42354;53.218;6.564;2023-05-19T03:46:22;46970.88;;;-142.92;100.00
56456;BME280;42354;53.218;6.564;2023-05-19T03:48:48;46970.88;;;-142.92;100.00
56456;BME280;42354;53.218;6.564;2023-05-19T03:51:13;46970.88;;;-142.92;100.00
56456;BME280;42354;53.218;6.564;2023-05-19T03:53:38;46979.06;;;-142.92;100.00
56456;BME280;42354;53.218;6.564;2023-05-19T03:56:05;46968.81;;;-142.92;100.00
56456;BME280;42354;53.218;6.564;2023-05-19T03:58:31;46985.22;;;-142.92;100.00
56456;BME280;42354;53.218;6.564;2023-05-19T04:00:57;46987.28;;;-142.92;100.00
56456;BME280;42354;53.218;6.564;2023-05-19T04:03:22;46983.19;;;-142.92;100.00
56456;BME280;42354;53.218;6.564;2023-05-19T04:05:47;46962.66;;;-142.92;100.00
56456;BME280;42354;53.218;6.564;2023-05-19T04:08:13;46977.03;;;-142.92;100.00
56456;BME280;42354;53.218;6.564;2023-05-19T04:10:38;46960.59;;;-142.92;100.00
56456;BME280;42354;53.218;6.564;2023-05-19T04:13:04;46972.91;;;-142.92;100.00
56456;BME280;42354;53.218;6.564;2023-05-19T04:15:29;46966.75;;;-142.92;100.00
56456;BME280;42354;53.218;6.564;2023-05-19T04:17:55;46985.22;;;-142.92;100.00
56456;BME280;42354;53.218;6.564;2023-05-19T04:20:20;46972.91;;;-142.92;100.00
56456;BME280;42354;53.218;6.564;2023-05-19T04:22:45;46964.72;;;-142.92;100.00
56456;BME280;42354;53.218;6.564;2023-05-19T04:25:10;46972.91;;;-142.92;100.00
56456;BME280;42354;53.218;6.564;2023-05-19T04:27:36;46974.97;;;-142.92;100.00
56456;BME280;42354;53.218;6.564;2023-05-19T04:30:04;46974.97;;;-142.92;100.00
56456;BME280;42354;53.218;6.564;2023-05-19T04:32:29;46981.13;;;-142.92;100.00
56456;BME280;42354;53.218;6.564;2023-05-19T04:34:55;46964.72;;;-142.92;100.00
56456;BME280;42354;53.218;6.564;2023-05-19T04:37:23;46974.97;;;-142.92;100.00
56456;BME280;42354;53.218;6.564;2023-05-19T04:39:50;46977.03;;;-142.92;100.00
56456;BME280;42354;53.218;6.564;2023-05-19T04:42:16;46989.34;;;-142.92;100.00
56456;BME280;42354;53.218;6.564;2023-05-19T04:44:44;46995.50;;;-142.92;100.00
56456;BME280;42354;53.218;6.564;2023-05-19T04:47:09;46983.19;;;-142.92;100.00
56456;BME280;42354;53.218;6.564;2023-05-19T04:49:35;46954.44;;;-142.92;100.00
56456;BME280;42354;53.218;6.564;2023-05-19T04:52:08;46974.97;;;-142.92;100.00
56456;BME280;42354;53.218;6.564;2023-05-19T04:54:37;46981.13;;;-142.92;100.00
56456;BME280;42354;53.218;6.564;2023-05-19T04:57:03;46981.13;;;-142.92;100.00
56456;BME280;42354;53.218;6.564;2023-05-19T04:59:29;46987.28;;;-142.92;100.00
56456;BME280;42354;53.218;6.564;2023-05-19T05:01:55;46995.50;;;-142.92;100.00
56456;BME280;42354;53.218;6.564;2023-05-19T05:04:22;46987.28;;;-142.92;100.00
56456;BME280;42354;53.218;6.564;2023-05-19T05:06:48;46995.50;;;-142.92;100.00
56456;BME280;42354;53.218;6.564;2023-05-19T05:09:14;46977.03;;;-142.92;100.00
56456;BME280;42354;53.218;6.564;2023-05-19T05:11:40;46977.03;;;-142.92;100.00
56456;BME280;42354;53.218;6.564;2023-05-19T05:14:06;46974.97;;;-142.92;100.00
56456;BME280;42354;53.218;6.564;2023-05-19T05:16:31;46972.91;;;-142.92;100.00
56456;BME280;42354;53.218;6.564;2023-05-19T05:18:58;46979.06;;;-142.92;100.00
56456;BME280;42354;53.218;6.564;2023-05-19T05:21:24;46983.19;;;-142.92;100.00
56456;BME280;42354;53.218;6.564;2023-05-19T05:23:50;46981.13;;;-142.92;100.00
56456;BME280;42354;53.218;6.564;2023-05-19T05:26:17;46974.97;;;-142.92;100.00
56456;BME280;42354;53.218;6.564;2023-05-19T05:28:47;46981.13;;;-142.92;100.00
56456;BME280;42354;53.218;6.564;2023-05-19T05:31:13;46979.06;;;-142.92;100.00
56456;BME280;42354;53.218;6.564;2023-05-19T05:33:39;46983.19;;;-142.92;100.00
56456;BME280;42354;53.218;6.564;2023-05-19T05:36:05;46974.97;;;-142.92;100.00
56456;BME280;42354;53.218;6.564;2023-05-19T05:38:30;46970.88;;;-142.92;100.00
56456;BME280;42354;53.218;6.564;2023-05-19T05:40:56;46983.19;;;-142.92;100.00
56456;BME280;42354;53.218;6.564;2023-05-19T05:43:21;46972.91;;;-142.92;100.00
56456;BME280;42354;53.218;6.564;2023-05-19T05:45:46;46987.28;;;-142.92;100.00
56456;BME280;42354;53.218;6.564;2023-05-19T05:48:12;46999.59;;;-142.92;100.00
56456;BME280;42354;53.218;6.564;2023-05-19T05:50:38;46974.97;;;-142.92;100.00
56456;BME280;42354;53.218;6.564;2023-05-19T05:53:04;46987.28;;;-142.92;100.00
56456;BME280;42354;53.218;6.564;2023-05-19T05:55:31;46979.06;;;-142.92;100.00
56456;BME280;42354;53.218;6.564;2023-05-19T05:57:57;46991.38;;;-142.92;100.00
56456;BME280;42354;53.218;6.564;2023-05-19T06:00:22;46981.13;;;-142.92;100.00
56456;BME280;42354;53.218;6.564;2023-05-19T06:02:50;46977.03;;;-142.92;100.00
56456;BME280;42354;53.218;6.564;2023-05-19T06:05:16;46981.13;;;-142.92;98.39
56456;BME280;42354;53.218;6.564;2023-05-19T06:07:41;46974.97;;;-142.92;96.81
56456;BME280;42354;53.218;6.564;2023-05-19T06:10:08;46970.88;;;-142.92;95.98
56456;BME280;42354;53.218;6.564;2023-05-19T06:12:34;46972.91;;;-142.92;94.65
56456;BME280;42354;53.218;6.564;2023-05-19T06:15:03;46964.72;;;-142.92;93.13
56456;BME280;42354;53.218;6.564;2023-05-19T06:17:28;46974.97;;;-142.92;92.30
56456;BME280;42354;53.218;6.564;2023-05-19T06:19:54;46989.34;;;-142.92;90.95
56456;BME280;42354;53.218;6.564;2023-05-19T06:22:19;46983.19;;;-142.92;89.79
56456;BME280;42354;53.218;6.564;2023-05-19T06:24:44;46977.03;;;-142.92;89.42
56456;BME280;42354;53.218;6.564;2023-05-19T06:27:10;46987.28;;;-142.92;88.17
56456;BME280;42354;53.218;6.564;2023-05-19T06:29:35;46987.28;;;-142.92;86.47
56456;BME280;42354;53.218;6.564;2023-05-19T06:32:00;46970.88;;;-142.92;85.24
56456;BME280;42354;53.218;6.564;2023-05-19T06:34:26;46987.28;;;-142.92;83.60
56456;BME280;42354;53.218;6.564;2023-05-19T06:36:51;46977.03;;;-142.92;81.16
56456;BME280;42354;53.218;6.564;2023-05-19T06:39:17;46987.28;;;-142.92;78.70
56456;BME280;42354;53.218;6.564;2023-05-19T06:41:42;46993.44;;;-142.92;76.14
56456;BME280;42354;53.218;6.564;2023-05-19T06:44:07;46985.22;;;-142.92;74.12
56456;BME280;42354;53.218;6.564;2023-05-19T06:46:33;46981.13;;;-142.92;73.30
56456;BME280;42354;53.218;6.564;2023-05-19T06:48:59;46987.28;;;-142.92;72.49
56456;BME280;42354;53.218;6.564;2023-05-19T06:51:24;46995.50;;;-142.92;70.86
56456;BME280;42354;53.218;6.564;2023-05-19T06:53:50;46970.88;;;-142.92;69.31
56456;BME280;42354;53.218;6.564;2023-05-19T06:56:15;46985.22;;;-142.92;67.33
56456;BME280;42354;53.218;6.564;2023-05-19T06:58:42;46991.38;;;-142.92;65.28
56456;BME280;42354;53.218;6.564;2023-05-19T07:01:08;46987.28;;;-142.92;64.61
56456;BME280;42354;53.218;6.564;2023-05-19T07:03:33;46987.28;;;-142.92;62.31
56456;BME280;42354;53.218;6.564;2023-05-19T07:05:58;46987.28;;;-142.92;60.10
56456;BME280;42354;53.218;6.564;2023-05-19T07:08:24;46989.34;;;-142.92;58.47
56456;BME280;42354;53.218;6.564;2023-05-19T07:10:52;46968.81;;;-142.92;57.42
56456;BME280;42354;53.218;6.564;2023-05-19T07:13:17;46983.19;;;-142.92;55.57
56456;BME280;42354;53.218;6.564;2023-05-19T07:15:42;46997.53;;;-142.92;54.30
56456;BME280;42354;53.218;6.564;2023-05-19T07:18:08;46983.19;;;-142.92;52.85
56456;BME280;42354;53.218;6.564;2023-05-19T07:20:33;46979.06;;;-142.92;51.88
56456;BME280;42354;53.218;6.564;2023-05-19T07:22:59;46985.22;;;-142.92;50.24
56456;BME280;42354;53.218;6.564;2023-05-19T07:25:27;46985.22;;;-142.92;49.19
56456;BME280;42354;53.218;6.564;2023-05-19T07:27:54;46974.97;;;-142.92;47.85
56456;BME280;42354;53.218;6.564;2023-05-19T07:30:20;46981.13;;;-142.92;46.91
56456;BME280;42354;53.218;6.564;2023-05-19T07:32:45;46983.19;;;-142.92;46.23
56456;BME280;42354;53.218;6.564;2023-05-19T07:35:10;46979.06;;;-142.92;44.82
56456;BME280;42354;53.218;6.564;2023-05-19T07:37:36;46974.97;;;-142.92;43.59
56456;BME280;42354;53.218;6.564;2023-05-19T07:40:02;46987.28;;;-142.92;42.90
56456;BME280;42354;53.218;6.564;2023-05-19T07:42:28;46968.81;;;-142.92;42.41
56456;BME280;42354;53.218;6.564;2023-05-19T07:44:53;46979.06;;;-142.92;42.28
56456;BME280;42354;53.218;6.564;2023-05-19T07:47:18;46989.34;;;-142.92;42.36
56456;BME280;42354;53.218;6.564;2023-05-19T07:49:44;46974.97;;;-142.92;41.65
56456;BME280;42354;53.218;6.564;2023-05-19T07:52:09;46979.06;;;-142.92;41.29
56456;BME280;42354;53.218;6.564;2023-05-19T07:54:35;46985.22;;;-142.92;40.89
56456;BME280;42354;53.218;6.564;2023-05-19T07:57:00;46983.19;;;-142.92;40.72
56456;BME280;42354;53.218;6.564;2023-05-19T07:59:25;46979.06;;;-142.92;39.83
56456;BME280;42354;53.218;6.564;2023-05-19T08:01:51;47001.66;;;-142.92;39.19
56456;BME280;42354;53.218;6.564;2023-05-19T08:04:16;46983.19;;;-142.92;39.21
56456;BME280;42354;53.218;6.564;2023-05-19T08:06:42;46974.97;;;-142.92;39.07
56456;BME280;42354;53.218;6.564;2023-05-19T08:09:08;46972.91;;;-142.92;38.08
56456;BME280;42354;53.218;6.564;2023-05-19T08:11:34;46987.28;;;-142.92;37.93
56456;BME280;42354;53.218;6.564;2023-05-19T08:13:59;46987.28;;;-142.92;37.90
56456;BME280;42354;53.218;6.564;2023-05-19T08:16:25;46979.06;;;-142.92;37.93
56456;BME280;42354;53.218;6.564;2023-05-19T08:18:50;46979.06;;;-142.92;37.72
56456;BME280;42354;53.218;6.564;2023-05-19T08:21:16;46974.97;;;-142.92;37.73
56456;BME280;42354;53.218;6.564;2023-05-19T08:23:41;46968.81;;;-142.92;37.65
56456;BME280;42354;53.218;6.564;2023-05-19T08:26:07;46966.75;;;-142.92;37.22
56456;BME280;42354;53.218;6.564;2023-05-19T08:28:32;46970.88;;;-142.92;36.94
56456;BME280;42354;53.218;6.564;2023-05-19T08:30:58;46977.03;;;-142.92;36.28
56456;BME280;42354;53.218;6.564;2023-05-19T08:33:23;46985.22;;;-142.92;35.90
56456;BME280;42354;53.218;6.564;2023-05-19T08:35:49;46977.03;;;-142.92;35.79
56456;BME280;42354;53.218;6.564;2023-05-19T08:38:14;46974.97;;;-142.92;36.00
56456;BME280;42354;53.218;6.564;2023-05-19T08:40:45;46970.88;;;-142.92;35.27
56456;BME280;42354;53.218;6.564;2023-05-19T08:43:10;46983.19;;;-142.92;35.53
56456;BME280;42354;53.218;6.564;2023-05-19T08:45:39;46987.28;;;-142.92;35.29
56456;BME280;42354;53.218;6.564;2023-05-19T08:48:07;46977.03;;;-142.92;35.29
56456;BME280;42354;53.218;6.564;2023-05-19T08:50:39;46970.88;;;-142.92;34.78
56456;BME280;42354;53.218;6.564;2023-05-19T08:55:49;46977.03;;;-142.92;34.80
56456;BME280;42354;53.218;6.564;2023-05-19T08:58:19;46966.75;;;-142.92;35.31
56456;BME280;42354;53.218;6.564;2023-05-19T09:00:46;46977.03;;;-142.92;35.14
56456;BME280;42354;53.218;6.564;2023-05-19T09:03:12;46985.22;;;-142.92;35.17
56456;BME280;42354;53.218;6.564;2023-05-19T09:05:40;46966.75;;;-142.92;34.93
56456;BME280;42354;53.218;6.564;2023-05-19T09:08:05;46972.91;;;-142.92;34.89
56456;BME280;42354;53.218;6.564;2023-05-19T09:10:31;46983.19;;;-142.92;34.73
56456;BME280;42354;53.218;6.564;2023-05-19T09:12:57;46993.44;;;-142.92;34.56
56456;BME280;42354;53.218;6.564;2023-05-19T09:15:25;46972.91;;;-142.92;34.24
56456;BME280;42354;53.218;6.564;2023-05-19T09:18:04;46966.75;;;-142.92;34.29
56456;BME280;42354;53.218;6.564;2023-05-19T09:20:30;46972.91;;;-142.92;34.46
56456;BME280;42354;53.218;6.564;2023-05-19T09:22:55;46974.97;;;-142.92;34.09
56456;BME280;42354;53.218;6.564;2023-05-19T09:25:25;46985.22;;;-142.92;34.14
56456;BME280;42354;53.218;6.564;2023-05-19T09:27:50;46977.03;;;-142.92;34.29
56456;BME280;42354;53.218;6.564;2023-05-19T09:30:18;46968.81;;;-142.92;34.45
56456;BME280;42354;53.218;6.564;2023-05-19T09:32:43;46968.81;;;-142.92;34.54
56456;BME280;42354;53.218;6.564;2023-05-19T09:35:11;46970.88;;;-142.92;34.65
56456;BME280;42354;53.218;6.564;2023-05-19T09:37:40;46983.19;;;-142.92;34.37
56456;BME280;42354;53.218;6.564;2023-05-19T09:40:09;46981.13;;;-142.92;34.11
56456;BME280;42354;53.218;6.564;2023-05-19T09:42:38;46962.66;;;-142.92;34.40
56456;BME280;42354;53.218;6.564;2023-05-19T09:45:05;46970.88;;;-142.92;34.45
56456;BME280;42354;53.218;6.564;2023-05-19T09:47:38;46970.88;;;-142.92;33.97
56456;BME280;42354;53.218;6.564;2023-05-19T09:50:09;46950.34;;;-142.92;34.10
56456;BME280;42354;53.218;6.564;2023-05-19T09:52:38;46968.81;;;-142.92;33.63
56456;BME280;42354;53.218;6.564;2023-05-19T09:55:08;46977.03;;;-142.92;33.96
56456;BME280;42354;53.218;6.564;2023-05-19T09:57:35;46962.66;;;-142.92;34.10
56456;BME280;42354;53.218;6.564;2023-05-19T10:00:05;46977.03;;;-142.92;33.71
56456;BME280;42354;53.218;6.564;2023-05-19T10:02:51;46983.19;;;-142.92;34.04
56456;BME280;42354;53.218;6.564;2023-05-19T10:05:17;46956.50;;;-142.92;33.65
56456;BME280;42354;53.218;6.564;2023-05-19T10:07:49;46972.91;;;-142.92;33.60
56456;BME280;42354;53.218;6.564;2023-05-19T10:10:15;46987.28;;;-142.92;32.30
56456;BME280;42354;53.218;6.564;2023-05-19T10:12:42;46985.22;;;-142.92;30.92
56456;BME280;42354;53.218;6.564;2023-05-19T10:15:12;46966.75;;;-142.92;29.46
56456;BME280;42354;53.218;6.564;2023-05-19T10:17:38;46985.22;;;-142.92;29.69
56456;BME280;42354;53.218;6.564;2023-05-19T10:20:15;46979.06;;;-142.92;29.12
56456;BME280;42354;53.218;6.564;2023-05-19T10:22:42;46966.75;;;-142.92;29.53
56456;BME280;42354;53.218;6.564;2023-05-19T10:25:08;46979.06;;;-142.92;28.70
56456;BME280;42354;53.218;6.564;2023-05-19T10:27:36;46974.97;;;-142.92;28.40
56456;BME280;42354;53.218;6.564;2023-05-19T10:30:07;46974.97;;;-142.92;28.05
56456;BME280;42354;53.218;6.564;2023-05-19T10:32:37;46960.59;;;-142.92;28.29
56456;BME280;42354;53.218;6.564;2023-05-19T10:40:42;46966.75;;;-142.92;28.18
56456;BME280;42354;53.218;6.564;2023-05-19T10:43:24;46977.03;;;-142.92;28.00
56456;BME280;42354;53.218;6.564;2023-05-19T10:45:56;46968.81;;;-142.92;27.81
56456;BME280;42354;53.218;6.564;2023-05-19T10:48:21;46981.13;;;-142.92;27.84
56456;BME280;42354;53.218;6.564;2023-05-19T10:50:48;46979.06;;;-142.92;27.82
56456;BME280;42354;53.218;6.564;2023-05-19T10:53:17;46962.66;;;-142.92;27.84
56456;BME280;42354;53.218;6.564;2023-05-19T11:01:14;46974.97;;;-142.92;28.29
56456;BME280;42354;53.218;6.564;2023-05-19T11:03:44;46966.75;;;-142.92;28.30
56456;BME280;42354;53.218;6.564;2023-05-19T11:06:29;46970.88;;;-142.92;27.56
56456;BME280;42354;53.218;6.564;2023-05-19T11:09:13;46962.66;;;-142.92;27.19
56456;BME280;42354;53.218;6.564;2023-05-19T11:11:47;46987.28;;;-142.92;26.95
56456;BME280;42354;53.218;6.564;2023-05-19T11:14:24;46970.88;;;-142.92;27.10
56456;BME280;42354;53.218;6.564;2023-05-19T11:16:52;46972.91;;;-142.92;26.97
56456;BME280;42354;53.218;6.564;2023-05-19T11:21:48;46960.59;;;-142.92;26.67
56456;BME280;42354;53.218;6.564;2023-05-19T11:24:35;46968.81;;;-142.92;26.55
56456;BME280;42354;53.218;6.564;2023-05-19T11:29:46;46968.81;;;-142.92;27.18
56456;BME280;42354;53.218;6.564;2023-05-19T11:32:13;46974.97;;;-142.92;27.00
56456;BME280;42354;53.218;6.564;2023-05-19T11:34:38;46962.66;;;-142.92;27.55
56456;BME280;42354;53.218;6.564;2023-05-19T11:37:05;46964.72;;;-142.92;27.71
56456;BME280;42354;53.218;6.564;2023-05-19T11:39:32;46962.66;;;-142.92;27.67
56456;BME280;42354;53.218;6.564;2023-05-19T11:41:57;46979.06;;;-142.92;27.60
56456;BME280;42354;53.218;6.564;2023-05-19T11:44:23;46958.56;;;-142.92;27.33
56456;BME280;42354;53.218;6.564;2023-05-19T11:46:48;46954.44;;;-142.92;27.49
56456;BME280;42354;53.218;6.564;2023-05-19T11:49:14;46966.75;;;-142.92;28.05
56456;BME280;42354;53.218;6.564;2023-05-19T11:51:44;46958.56;;;-142.92;28.12
56456;BME280;42354;53.218;6.564;2023-05-19T11:54:11;46970.88;;;-142.92;27.72
56456;BME280;42354;53.218;6.564;2023-05-19T11:56:42;46974.97;;;-142.92;27.48
56456;BME280;42354;53.218;6.564;2023-05-19T11:59:08;46958.56;;;-142.92;27.54
56456;BME280;42354;53.218;6.564;2023-05-19T12:01:34;46968.81;;;-142.92;27.46
56456;BME280;42354;53.218;6.564;2023-05-19T12:04:09;46979.06;;;-142.92;27.56
56456;BME280;42354;53.218;6.564;2023-05-19T12:06:34;46966.75;;;-142.92;27.61
56456;BME280;42354;53.218;6.564;2023-05-19T12:09:01;46972.91;;;-142.92;27.88
56456;BME280;42354;53.218;6.564;2023-05-19T12:11:27;46954.44;;;-142.92;27.73
56456;BME280;42354;53.218;6.564;2023-05-19T12:14:00;46954.44;;;-142.92;27.69
56456;BME280;42354;53.218;6.564;2023-05-19T12:16:35;46962.66;;;-142.92;27.60
56456;BME280;42354;53.218;6.564;2023-05-19T12:19:01;46968.81;;;-142.92;27.42
56456;BME280;42354;53.218;6.564;2023-05-19T12:21:29;46956.50;;;-142.92;27.81
56456;BME280;42354;53.218;6.564;2023-05-19T12:23:55;46962.66;;;-142.92;27.58
56456;BME280;42354;53.218;6.564;2023-05-19T12:26:20;46966.75;;;-142.92;27.03
56456;BME280;42354;53.218;6.564;2023-05-19T12:28:46;46974.97;;;-142.92;27.28
56456;BME280;42354;53.218;6.564;2023-05-19T12:31:15;46958.56;;;-142.92;27.15
56456;BME280;42354;53.218;6.564;2023-05-19T12:33:40;46948.28;;;-142.92;27.52
56456;BME280;42354;53.218;6.564;2023-05-19T12:36:06;46972.91;;;-142.92;27.74
56456;BME280;42354;53.218;6.564;2023-05-19T12:38:32;46964.72;;;-142.92;27.65
56456;BME280;42354;53.218;6.564;2023-05-19T12:41:01;46966.75;;;-142.92;27.88
56456;BME280;42354;53.218;6.564;2023-05-19T12:43:26;46962.66;;;-142.92;27.79
56456;BME280;42354;53.218;6.564;2023-05-19T12:45:54;46977.03;;;-142.92;28.03
56456;BME280;42354;53.218;6.564;2023-05-19T12:48:25;46974.97;;;-142.92;28.16
56456;BME280;42354;53.218;6.564;2023-05-19T12:50:51;46962.66;;;-142.92;28.17
56456;BME280;42354;53.218;6.564;2023-05-19T12:53:18;46960.59;;;-142.92;28.17
56456;BME280;42354;53.218;6.564;2023-05-19T12:55:44;46966.75;;;-142.92;28.41
56456;BME280;42354;53.218;6.564;2023-05-19T12:58:11;46958.56;;;-142.92;28.17
56456;BME280;42354;53.218;6.564;2023-05-19T13:00:42;46954.44;;;-142.92;28.34
56456;BME280;42354;53.218;6.564;2023-05-19T13:03:14;46966.75;;;-142.92;28.38
56456;BME280;42354;53.218;6.564;2023-05-19T13:05:41;46966.75;;;-142.92;28.09
56456;BME280;42354;53.218;6.564;2023-05-19T13:08:12;46956.50;;;-142.92;28.27
56456;BME280;42354;53.218;6.564;2023-05-19T13:10:39;46966.75;;;-142.92;28.42
56456;BME280;42354;53.218;6.564;2023-05-19T13:13:07;46960.59;;;-142.92;28.55